Alligator Point, Florida
Current Conditions -  °F | °C
As of 6:53 AM on Sunday 23 Nov 2014 (Local Time) from KTLH Reporting Station
Light Rain Light Rain  
Wind Chill: 70°   Ceiling: 600
Heat Index: 70°   Visibility: 7mi
Dew Point: 66°   Wind: 12mph
Humidity: 87%   Direction: 160°SSE
Pressure: 29.93"   Gusts: 18mph
Location:  30.0223°N, 84.3911°W
Report Text: KTLH 231153Z 16010G16KT 7SM -RA OVC006 21/19 A2993 RMK AO2 SLP134 P0005 60095 70288 T02110189 10211 20178 55009 $
Loading
Personal Weather Stations






























Interactive Weather Map New forecast layout! Learn more

10-Day Weather Forecast

Advertisements
Track Severe Weather on mobile